createdAt,value
2022-12-19T00:01:47.804Z,101884.56
2022-12-19T00:04:15.910Z,101889.16
2022-12-19T00:06:43.863Z,101888.66
2022-12-19T00:09:12.530Z,101898.88
2022-12-19T00:11:40.495Z,101897.09
2022-12-19T00:14:07.721Z,101899.16
2022-12-19T00:16:34.648Z,101900.28
2022-12-19T00:19:01.903Z,101908.72
2022-12-19T00:21:30.782Z,101910.25
2022-12-19T00:24:01.052Z,101904.81
2022-12-19T00:26:33.042Z,101905.97
2022-12-19T00:29:03.652Z,101902.34
2022-12-19T00:31:33.532Z,101907.75
2022-12-19T00:34:00.823Z,101892.47
2022-12-19T00:36:29.910Z,101896.72
2022-12-19T00:38:59.189Z,101901.44
2022-12-19T00:41:31.225Z,101910.28
2022-12-19T00:44:03.590Z,101902.66
2022-12-19T00:46:33.053Z,101907.09
2022-12-19T00:49:00.890Z,101905.50
2022-12-19T00:51:32.493Z,101902.31
2022-12-19T00:54:00.026Z,101912.81
2022-12-19T00:56:37.987Z,101916.00
2022-12-19T00:59:06.805Z,101925.25
2022-12-19T01:01:37.523Z,101936.28
2022-12-19T01:06:54.116Z,101928.09
2022-12-19T01:09:24.979Z,101928.97
2022-12-19T01:12:10.430Z,101928.34
2022-12-19T01:14:37.184Z,101939.47
2022-12-19T01:17:03.892Z,101938.13
2022-12-19T01:19:30.742Z,101939.00
2022-12-19T01:21:57.625Z,101936.25
2022-12-19T01:24:24.682Z,101931.44
2022-12-19T01:26:51.498Z,101936.88
2022-12-19T01:29:18.268Z,101938.66
2022-12-19T01:31:45.063Z,101949.16
2022-12-19T01:34:11.974Z,101947.28
2022-12-19T01:36:39.803Z,101941.50
2022-12-19T01:39:07.969Z,101952.53
2022-12-19T01:41:35.623Z,101959.84
2022-12-19T01:44:05.385Z,101958.41
2022-12-19T01:46:54.710Z,101951.53
2022-12-19T01:49:25.162Z,101948.00
2022-12-19T01:52:14.927Z,101955.25
2022-12-19T01:54:51.601Z,101947.00
2022-12-19T01:57:23.600Z,101951.91
2022-12-19T02:00:13.487Z,101958.47
2022-12-19T02:02:48.939Z,101966.13
2022-12-19T02:05:16.335Z,101968.97
2022-12-19T02:07:44.586Z,101969.84
2022-12-19T02:10:11.975Z,101971.16
2022-12-19T02:12:43.662Z,101970.00
2022-12-19T02:15:15.262Z,101973.66
2022-12-19T02:18:07.776Z,101961.81
2022-12-19T02:21:12.640Z,101959.50
2022-12-19T02:23:57.226Z,101956.84
2022-12-19T02:27:01.958Z,101957.63
2022-12-19T02:29:47.688Z,101966.34
2022-12-19T02:32:20.980Z,101973.38
2022-12-19T02:34:58.887Z,101985.38
2022-12-19T02:37:52.912Z,101980.22
2022-12-19T02:40:27.047Z,101988.69
2022-12-19T02:43:00.610Z,101979.41
2022-12-19T02:45:30.048Z,101990.88
2022-12-19T02:48:08.444Z,101985.47
2022-12-19T02:50:39.221Z,101987.16
2022-12-19T02:53:07.265Z,101984.59
2022-12-19T02:55:49.027Z,101984.94
2022-12-19T02:58:20.154Z,101983.31
2022-12-19T03:01:00.978Z,101987.69
2022-12-19T03:03:53.439Z,101979.94
2022-12-19T03:06:27.671Z,101982.69
2022-12-19T03:09:10.621Z,101987.59
2022-12-19T03:11:40.154Z,101986.94
2022-12-19T03:14:13.087Z,101983.13
2022-12-19T03:16:41.283Z,101977.28
2022-12-19T03:19:11.966Z,101981.56
2022-12-19T03:21:43.483Z,101982.53
2022-12-19T03:24:12.399Z,101983.56
2022-12-19T03:26:48.435Z,101982.34
2022-12-19T03:29:22.002Z,101985.81
2022-12-19T03:31:49.336Z,101991.72
2022-12-19T03:34:21.019Z,101997.69
2022-12-19T03:36:52.771Z,101996.22
2022-12-19T03:39:20.822Z,102000.44
2022-12-19T03:42:07.983Z,101991.16
2022-12-19T03:44:38.601Z,101998.03
2022-12-19T03:47:12.760Z,101995.88
2022-12-19T03:49:39.962Z,101997.50
2022-12-19T03:52:39.103Z,102007.91
2022-12-19T03:55:18.008Z,102007.66
2022-12-19T03:57:52.934Z,102004.47
2022-12-19T04:00:20.611Z,101998.72
2022-12-19T04:02:51.355Z,101994.22
2022-12-19T04:05:21.886Z,101990.63
2022-12-19T04:07:51.106Z,101982.66
2022-12-19T04:10:22.508Z,101979.06
2022-12-19T04:12:58.826Z,101975.81
2022-12-19T04:15:42.769Z,101991.06
2022-12-19T04:18:12.791Z,102004.94
2022-12-19T04:20:43.155Z,102014.56
2022-12-19T04:23:29.212Z,102021.47
2022-12-19T04:26:01.978Z,102035.53
2022-12-19T04:28:48.022Z,102025.03
2022-12-19T04:31:17.108Z,102025.81
2022-12-19T04:33:44.341Z,102025.13
2022-12-19T04:36:11.551Z,102027.78
2022-12-19T04:38:38.724Z,102025.81
2022-12-19T04:41:06.098Z,102042.06
2022-12-19T04:43:33.313Z,102037.69
2022-12-19T04:46:00.971Z,102045.34
2022-12-19T04:48:28.234Z,102048.31
2022-12-19T04:50:55.860Z,102057.81
2022-12-19T04:53:23.023Z,102053.78
2022-12-19T04:55:50.084Z,102055.13
2022-12-19T04:58:21.822Z,102060.56
2022-12-19T05:00:49.333Z,102055.13
2022-12-19T05:03:16.244Z,102063.78
2022-12-19T05:05:43.621Z,102063.78
2022-12-19T05:08:11.121Z,102074.03
2022-12-19T05:10:38.406Z,102075.97
2022-12-19T05:13:05.487Z,102074.19
2022-12-19T05:15:32.415Z,102078.47
2022-12-19T05:17:59.430Z,102079.03
2022-12-19T05:20:26.404Z,102094.78
2022-12-19T05:22:53.261Z,102092.19
2022-12-19T05:25:20.132Z,102102.84
2022-12-19T05:27:47.194Z,102104.03
2022-12-19T05:30:14.416Z,102103.31
2022-12-19T05:32:41.634Z,102103.03
2022-12-19T05:35:08.540Z,102109.81
2022-12-19T05:37:36.346Z,102114.09
2022-12-19T05:40:03.915Z,102106.97
2022-12-19T05:42:31.316Z,102095.75
2022-12-19T05:44:58.427Z,102090.31
2022-12-19T05:47:25.639Z,102093.22
2022-12-19T05:49:54.722Z,102088.81
2022-12-19T05:52:25.211Z,102093.78
2022-12-19T05:54:52.694Z,102086.63
2022-12-19T05:57:20.318Z,102094.84
2022-12-19T05:59:47.695Z,102106.97
2022-12-19T06:02:15.696Z,102120.28
2022-12-19T06:04:43.020Z,102122.47
2022-12-19T06:07:13.455Z,102114.16
2022-12-19T06:09:42.280Z,102117.22
2022-12-19T06:12:09.627Z,102113.38
2022-12-19T06:14:37.524Z,102121.34
2022-12-19T06:17:04.894Z,102121.75
2022-12-19T06:19:32.377Z,102143.00
2022-12-19T06:21:59.714Z,102137.53
2022-12-19T06:24:27.357Z,102132.78
2022-12-19T06:26:54.563Z,102133.59
2022-12-19T06:29:21.747Z,102124.59
2022-12-19T06:31:50.068Z,102125.25
2022-12-19T06:34:39.476Z,102126.84
2022-12-19T06:37:08.352Z,102135.06
2022-12-19T06:39:35.900Z,102130.78
2022-12-19T06:42:22.448Z,102135.31
2022-12-19T06:44:54.349Z,102135.56
2022-12-19T06:47:24.886Z,102139.53
2022-12-19T06:49:52.438Z,102137.47
2022-12-19T06:52:19.659Z,102153.06
2022-12-19T06:54:47.098Z,102148.81
2022-12-19T06:57:14.430Z,102151.38
2022-12-19T06:59:41.545Z,102147.59
2022-12-19T07:02:08.985Z,102164.22
2022-12-19T07:04:41.902Z,102154.16
2022-12-19T07:07:09.555Z,102155.94
2022-12-19T07:09:37.511Z,102163.72
2022-12-19T07:12:05.379Z,102161.53
2022-12-19T07:14:33.285Z,102166.59
2022-12-19T07:17:02.331Z,102160.66
2022-12-19T07:19:32.309Z,102162.47
2022-12-19T07:22:02.748Z,102168.78
2022-12-19T07:24:33.397Z,102165.53
2022-12-19T07:27:01.248Z,102169.47
2022-12-19T07:29:28.856Z,102171.84
2022-12-19T07:31:56.456Z,102174.94
2022-12-19T07:34:24.104Z,102176.28
2022-12-19T07:36:51.431Z,102180.66
2022-12-19T07:39:19.284Z,102189.03
2022-12-19T07:41:46.727Z,102191.09
2022-12-19T07:44:16.306Z,102186.09
2022-12-19T07:46:44.167Z,102196.38
2022-12-19T07:49:11.650Z,102196.44
2022-12-19T07:51:39.520Z,102189.06
2022-12-19T07:54:07.213Z,102187.16
2022-12-19T07:56:34.737Z,102189.84
2022-12-19T07:59:02.621Z,102198.94
2022-12-19T08:01:30.282Z,102207.78
2022-12-19T08:03:58.652Z,102211.56
2022-12-19T08:06:26.939Z,102205.63
2022-12-19T08:08:54.968Z,102208.81
2022-12-19T08:11:27.821Z,102214.44
2022-12-19T08:13:55.233Z,102210.81
2022-12-19T08:16:25.127Z,102201.41
2022-12-19T08:18:53.367Z,102193.59
2022-12-19T08:21:21.042Z,102195.59
2022-12-19T08:23:49.556Z,102183.41
2022-12-19T08:26:25.631Z,102184.69
2022-12-19T08:28:57.604Z,102180.69
2022-12-19T08:31:27.525Z,102179.91
2022-12-19T08:33:57.462Z,102169.34
2022-12-19T08:36:25.501Z,102162.44
2022-12-19T08:38:53.483Z,102157.56
2022-12-19T08:41:21.176Z,102149.53
2022-12-19T08:43:53.275Z,102148.41
2022-12-19T08:46:21.765Z,102142.84
2022-12-19T08:48:49.731Z,102143.84
2022-12-19T08:51:17.867Z,102136.88
2022-12-19T08:53:47.285Z,102142.94
2022-12-19T08:56:20.789Z,102136.25
2022-12-19T08:58:49.382Z,102130.25
2022-12-19T09:01:19.750Z,102137.56
2022-12-19T09:04:22.572Z,102135.09
2022-12-19T09:06:35.195Z,102122.03
2022-12-19T09:09:04.931Z,102129.97
2022-12-19T09:11:32.866Z,102132.63
2022-12-19T09:14:05.443Z,102147.63
2022-12-19T09:16:33.046Z,102151.13
2022-12-19T09:19:00.589Z,102159.91
2022-12-19T09:21:29.662Z,102166.00
2022-12-19T09:24:05.310Z,102173.03
2022-12-19T09:26:36.157Z,102172.19
2022-12-19T09:29:10.916Z,102164.16
2022-12-19T09:31:55.513Z,102167.69
2022-12-19T09:34:37.180Z,102158.88
2022-12-19T09:37:10.367Z,102164.09
2022-12-19T09:39:45.968Z,102157.97
2022-12-19T09:42:22.435Z,102157.09
2022-12-19T09:44:59.469Z,102159.66
2022-12-19T09:47:32.247Z,102148.25
2022-12-19T09:50:02.095Z,102159.69
2022-12-19T09:52:55.945Z,102150.88
2022-12-19T09:55:28.896Z,102135.94
2022-12-19T09:58:06.038Z,102137.78
2022-12-19T10:00:59.958Z,102129.97
2022-12-19T10:03:45.521Z,102137.03
2022-12-19T10:07:07.708Z,102134.34
2022-12-19T10:10:38.815Z,102132.66
2022-12-19T10:12:42.401Z,102130.88
2022-12-19T10:15:16.158Z,102124.72
2022-12-19T10:17:55.257Z,102117.63
2022-12-19T10:20:38.984Z,102122.03
2022-12-19T10:23:42.597Z,102116.75
2022-12-19T10:26:21.312Z,102114.00
2022-12-19T10:29:08.568Z,102104.19
2022-12-19T10:31:51.977Z,102104.19
2022-12-19T10:34:25.041Z,102105.03
2022-12-19T10:37:25.649Z,102101.34
2022-12-19T10:40:07.337Z,102096.69
2022-12-19T10:42:51.985Z,102089.47
2022-12-19T10:45:21.921Z,102082.31
2022-12-19T10:47:55.447Z,102080.44
2022-12-19T10:50:26.794Z,102084.59
2022-12-19T10:53:05.084Z,102092.41
2022-12-19T10:55:43.562Z,102087.81
2022-12-19T10:58:22.900Z,102085.09
2022-12-19T11:01:19.918Z,102086.91
2022-12-19T11:03:53.449Z,102086.13
2022-12-19T11:06:46.110Z,102086.88
2022-12-19T11:09:16.992Z,102092.13
2022-12-19T11:14:42.586Z,102084.38
2022-12-19T11:19:54.238Z,102084.56
2022-12-19T11:23:01.797Z,102087.44
2022-12-19T11:29:27.341Z,102077.03
2022-12-19T11:29:32.462Z,102079.75
2022-12-19T11:30:39.548Z,102076.16
2022-12-19T11:30:44.327Z,102078.03
2022-12-19T11:34:41.810Z,102078.38
2022-12-19T11:37:45.366Z,102079.09
2022-12-19T11:40:21.525Z,102070.25
2022-12-19T11:43:10.808Z,102059.78
2022-12-19T11:45:51.148Z,102074.66
2022-12-19T11:48:52.600Z,102064.13
2022-12-19T11:51:36.338Z,102072.19
2022-12-19T11:54:23.711Z,102067.72
2022-12-19T11:56:51.246Z,102066.94
2022-12-19T11:59:21.086Z,102056.63
2022-12-19T12:02:07.210Z,102073.63
2022-12-19T12:04:50.912Z,102070.91
2022-12-19T12:07:37.361Z,102075.72
2022-12-19T12:15:24.423Z,102074.03
2022-12-19T12:20:10.239Z,102079.66
2022-12-19T12:30:17.204Z,102085.06
2022-12-19T12:31:12.794Z,102082.41
2022-12-19T12:31:14.855Z,102087.56
2022-12-19T12:31:57.580Z,102091.78
2022-12-19T12:35:09.496Z,102096.09
2022-12-19T12:35:51.088Z,102100.38
2022-12-19T12:38:39.058Z,102090.09
2022-12-19T12:41:21.139Z,102091.66
2022-12-19T12:44:10.323Z,102088.03
2022-12-19T12:46:51.092Z,102096.03
2022-12-19T12:49:35.425Z,102088.25
2022-12-19T12:52:06.635Z,102083.84
2022-12-19T12:54:39.697Z,102086.78
2022-12-19T12:57:07.475Z,102083.59
2022-12-19T12:59:35.261Z,102084.03
2022-12-19T13:02:19.197Z,102085.28
2022-12-19T13:05:01.535Z,102087.38
2022-12-19T13:07:52.851Z,102097.47
2022-12-19T13:10:26.889Z,102091.75
2022-12-19T13:13:19.782Z,102086.97
2022-12-19T13:15:51.258Z,102094.09
2022-12-19T13:18:38.219Z,102093.00
2022-12-19T13:21:08.707Z,102096.97
2022-12-19T13:23:38.814Z,102097.44
2022-12-19T13:26:23.211Z,102096.91
2022-12-19T13:28:50.991Z,102092.19
2022-12-19T13:31:23.311Z,102095.22
2022-12-19T13:33:55.697Z,102092.94
2022-12-19T13:39:47.737Z,102089.75
2022-12-19T13:39:54.779Z,102093.22
2022-12-19T13:45:48.304Z,102092.72
2022-12-19T13:48:27.767Z,102095.59
2022-12-19T13:50:58.086Z,102095.66
2022-12-19T13:53:31.428Z,102095.75
2022-12-19T13:56:13.456Z,102110.50
2022-12-19T13:59:05.025Z,102111.22
2022-12-19T14:01:37.124Z,102115.00
2022-12-19T14:04:09.210Z,102106.56
2022-12-19T14:06:46.283Z,102102.31
2022-12-19T14:11:39.219Z,102105.22
2022-12-19T14:13:42.441Z,102107.81
2022-12-19T14:15:45.308Z,102095.44
2022-12-19T14:18:42.571Z,102089.50
2022-12-19T14:22:04.003Z,102092.03
2022-12-19T14:24:16.655Z,102102.22
2022-12-19T14:28:16.786Z,102099.13
2022-12-19T14:30:27.662Z,102099.16
2022-12-19T14:33:40.172Z,102087.22
2022-12-19T14:36:10.736Z,102089.88
2022-12-19T14:39:23.967Z,102099.06
2022-12-19T14:41:47.774Z,102096.78
2022-12-19T14:53:34.243Z,102093.56
2022-12-19T14:54:06.173Z,102100.63
2022-12-19T14:54:11.642Z,102091.72
2022-12-19T14:54:26.801Z,102096.59
2022-12-19T14:59:13.701Z,102097.91
2022-12-19T15:01:40.951Z,102092.66
2022-12-19T15:04:52.317Z,102091.53
2022-12-19T15:07:12.163Z,102078.47
2022-12-19T15:11:07.501Z,102074.13
2022-12-19T15:14:48.423Z,102084.13
2022-12-19T15:16:06.107Z,102074.41
2022-12-19T15:18:33.355Z,102071.75
2022-12-19T15:21:10.072Z,102076.03
2022-12-19T15:23:37.301Z,102068.19
2022-12-19T15:26:10.964Z,102067.91
2022-12-19T15:28:47.636Z,102068.13
2022-12-19T15:31:38.687Z,102060.69
2022-12-19T15:37:01.606Z,102051.69
2022-12-19T15:39:30.391Z,102051.38
2022-12-19T15:41:59.699Z,102055.56
2022-12-19T15:44:36.882Z,102053.34
2022-12-19T15:47:16.178Z,102051.78
2022-12-19T15:49:43.367Z,102058.69
2022-12-19T15:52:20.716Z,102063.75
2022-12-19T15:54:50.365Z,102068.00
2022-12-19T15:57:35.542Z,102062.88
2022-12-19T16:00:07.880Z,102061.19
2022-12-19T16:03:13.277Z,102049.28
2022-12-19T16:05:24.133Z,102042.06
2022-12-19T16:07:52.068Z,102044.94
2022-12-19T16:10:19.221Z,102040.47
2022-12-19T16:12:53.399Z,102038.53
2022-12-19T16:15:26.716Z,102038.91
2022-12-19T16:17:54.578Z,102039.09
2022-12-19T16:20:43.261Z,102036.69
2022-12-19T16:23:11.398Z,102049.53
2022-12-19T16:25:40.908Z,102048.91
2022-12-19T16:28:15.816Z,102041.78
2022-12-19T16:30:44.785Z,102057.22
2022-12-19T16:33:20.276Z,102061.34
2022-12-19T16:36:04.823Z,102061.34
2022-12-19T16:38:33.560Z,102060.16
2022-12-19T16:41:01.811Z,102052.94
2022-12-19T16:43:42.470Z,102052.72
2022-12-19T16:46:19.262Z,102054.38
2022-12-19T16:48:47.105Z,102054.38
2022-12-19T16:51:23.656Z,102043.91
2022-12-19T16:53:53.202Z,102047.81
2022-12-19T16:56:23.249Z,102046.94
2022-12-19T16:58:51.458Z,102040.81
2022-12-19T17:01:18.657Z,102031.19
2022-12-19T17:03:46.138Z,102025.28
2022-12-19T17:06:16.216Z,102028.84
2022-12-19T17:08:44.176Z,102026.91
2022-12-19T17:11:30.543Z,102028.00
2022-12-19T17:14:03.679Z,102018.38
2022-12-19T17:16:31.218Z,102015.91
2022-12-19T17:18:59.318Z,102010.09
2022-12-19T17:21:26.245Z,102008.31
2022-12-19T17:23:53.304Z,102004.19
2022-12-19T17:26:20.604Z,101999.16
2022-12-19T17:28:48.496Z,101994.88
2022-12-19T17:31:28.461Z,101990.63
2022-12-19T17:33:58.205Z,101999.81
2022-12-19T17:36:37.181Z,101990.41
2022-12-19T17:39:17.019Z,101991.22
2022-12-19T17:41:44.241Z,101994.47
2022-12-19T17:44:11.840Z,101990.00
2022-12-19T17:46:39.091Z,101988.03
2022-12-19T17:49:06.303Z,101986.03
2022-12-19T17:51:33.498Z,101990.19
2022-12-19T17:54:00.369Z,101984.06
2022-12-19T17:56:29.719Z,101982.06
2022-12-19T17:58:56.723Z,101982.66
2022-12-19T18:01:24.839Z,101978.84
2022-12-19T18:03:56.419Z,101979.97
2022-12-19T18:06:23.583Z,101980.28
2022-12-19T18:08:50.755Z,101979.47
2022-12-19T18:11:21.006Z,101979.16
2022-12-19T18:13:49.251Z,101982.66
2022-12-19T18:16:19.933Z,101986.00
2022-12-19T18:18:47.388Z,101979.38
2022-12-19T18:21:17.029Z,101982.06
2022-12-19T18:23:47.514Z,101962.41
2022-12-19T18:26:16.536Z,101966.75
2022-12-19T18:28:43.531Z,101968.13
2022-12-19T18:31:18.339Z,101967.53
2022-12-19T18:33:47.763Z,101959.84
2022-12-19T18:36:23.500Z,101964.06
2022-12-19T18:38:50.825Z,101952.13
2022-12-19T18:41:20.252Z,101957.94
2022-12-19T18:43:48.765Z,101956.25
2022-12-19T18:46:28.029Z,101954.59
2022-12-19T18:48:59.063Z,101956.97
2022-12-19T18:51:30.144Z,101958.28
2022-12-19T18:53:57.935Z,101952.44
2022-12-19T18:56:25.478Z,101947.75
2022-12-19T18:58:52.440Z,101941.47
2022-12-19T19:01:21.987Z,101943.06
2022-12-19T19:03:56.056Z,101943.94
2022-12-19T19:06:26.910Z,101947.91
2022-12-19T19:08:54.552Z,101944.25
2022-12-19T19:11:41.463Z,101935.13
2022-12-19T19:14:09.899Z,101936.66
2022-12-19T19:16:41.848Z,101931.31
2022-12-19T19:19:14.569Z,101936.44
2022-12-19T19:21:46.925Z,101936.91
2022-12-19T19:24:21.892Z,101938.47
2022-12-19T19:26:49.713Z,101933.03
2022-12-19T19:29:19.198Z,101943.19
2022-12-19T19:31:48.336Z,101926.69
2022-12-19T19:34:36.745Z,101929.16
2022-12-19T19:37:07.930Z,101920.47
2022-12-19T19:39:34.966Z,101915.31
2022-12-19T19:42:02.074Z,101922.91
2022-12-19T19:44:28.899Z,101928.94
2022-12-19T19:46:55.964Z,101916.09
2022-12-19T19:49:23.375Z,101904.06
2022-12-19T19:51:50.511Z,101897.91
2022-12-19T19:54:17.536Z,101905.50
2022-12-19T19:56:44.310Z,101911.34
2022-12-19T19:59:11.291Z,101904.41
2022-12-19T20:01:38.159Z,101893.47
2022-12-19T20:04:05.217Z,101899.72
2022-12-19T20:06:32.957Z,101905.72
2022-12-19T20:09:00.186Z,101899.91
2022-12-19T20:11:27.133Z,101906.75
2022-12-19T20:13:54.394Z,101896.16
2022-12-19T20:16:21.394Z,101887.31
2022-12-19T20:18:53.020Z,101886.94
2022-12-19T20:21:20.770Z,101879.22
2022-12-19T20:23:47.997Z,101870.72
2022-12-19T20:26:16.722Z,101874.28
2022-12-19T20:28:49.288Z,101878.53
2022-12-19T20:31:21.810Z,101875.66
2022-12-19T20:33:51.495Z,101880.78
2022-12-19T20:36:19.463Z,101881.19
2022-12-19T20:38:49.903Z,101871.72
2022-12-19T20:41:17.205Z,101884.53
2022-12-19T20:43:45.164Z,101869.34
2022-12-19T20:46:16.356Z,101860.41
2022-12-19T20:48:45.087Z,101858.13
2022-12-19T20:51:13.885Z,101852.75
2022-12-19T20:53:44.459Z,101846.44
2022-12-19T20:56:16.284Z,101850.38
2022-12-19T20:58:43.817Z,101841.38
2022-12-19T21:01:14.225Z,101834.78
2022-12-19T21:03:42.177Z,101835.28
2022-12-19T21:06:11.234Z,101830.75
2022-12-19T21:08:38.749Z,101822.94
2022-12-19T21:11:07.807Z,101828.16
2022-12-19T21:13:35.828Z,101832.03
2022-12-19T21:16:07.152Z,101829.97
2022-12-19T21:18:35.142Z,101832.94
2022-12-19T21:21:04.008Z,101822.84
2022-12-19T21:23:31.149Z,101818.69
2022-12-19T21:26:01.357Z,101801.66
2022-12-19T21:28:29.425Z,101811.34
2022-12-19T21:31:04.558Z,101796.91
2022-12-19T21:33:32.244Z,101804.63
2022-12-19T21:36:09.011Z,101800.75
2022-12-19T21:38:36.199Z,101800.66
2022-12-19T21:41:07.994Z,101793.75
2022-12-19T21:43:35.586Z,101789.38
2022-12-19T21:46:11.065Z,101781.00
2022-12-19T21:48:43.273Z,101785.16
2022-12-19T21:51:12.027Z,101788.59
2022-12-19T21:53:39.537Z,101791.09
2022-12-19T21:56:26.502Z,101785.94
2022-12-19T21:58:58.375Z,101774.69
2022-12-19T22:01:26.148Z,101774.28
2022-12-19T22:03:53.942Z,101764.97
2022-12-19T22:06:28.396Z,101755.47
2022-12-19T22:08:56.077Z,101748.47
2022-12-19T22:11:24.177Z,101748.47
2022-12-19T22:13:52.134Z,101749.88
2022-12-19T22:16:19.139Z,101748.97
2022-12-19T22:18:46.641Z,101751.63
2022-12-19T22:21:15.240Z,101748.38
2022-12-19T22:23:42.688Z,101749.66
2022-12-19T22:26:13.380Z,101741.06
2022-12-19T22:28:43.467Z,101754.22
2022-12-19T22:31:20.714Z,101749.41
2022-12-19T22:33:49.434Z,101751.88
2022-12-19T22:36:20.980Z,101751.78
2022-12-19T22:38:51.287Z,101743.41
2022-12-19T22:41:20.078Z,101736.22
2022-12-19T22:43:47.730Z,101741.16
2022-12-19T22:46:28.871Z,101733.16
2022-12-19T22:49:01.408Z,101737.81
2022-12-19T22:51:31.456Z,101734.06
2022-12-19T22:53:59.306Z,101730.59
2022-12-19T22:56:29.388Z,101736.25
2022-12-19T22:58:59.774Z,101729.03
2022-12-19T23:01:33.512Z,101731.50
2022-12-19T23:04:02.809Z,101725.28
2022-12-19T23:06:32.721Z,101714.81
2022-12-19T23:09:00.869Z,101715.31
2022-12-19T23:11:33.627Z,101706.69
2022-12-19T23:14:02.122Z,101712.75
2022-12-19T23:16:29.227Z,101711.84
2022-12-19T23:18:56.491Z,101705.44
2022-12-19T23:21:24.705Z,101702.28
2022-12-19T23:23:53.948Z,101707.50
2022-12-19T23:26:26.551Z,101700.78
2022-12-19T23:29:05.178Z,101696.72
2022-12-19T23:31:32.649Z,101686.53
2022-12-19T23:34:00.434Z,101681.50
2022-12-19T23:37:08.361Z,101670.00
2022-12-19T23:39:15.475Z,101667.63
2022-12-19T23:41:42.495Z,101655.84
2022-12-19T23:44:10.586Z,101653.38
2022-12-19T23:46:37.900Z,101656.75
2022-12-19T23:49:05.027Z,101660.31
2022-12-19T23:51:31.997Z,101648.75
2022-12-19T23:53:58.856Z,101645.03
2022-12-19T23:56:28.353Z,101655.13
2022-12-19T23:58:55.683Z,101648.19
